Time;durP1;ratioP1;P1;durP2;ratioP2;P2;SDS_P1;SDS_P2;PMS_P1;PMS_P2;Temp;Humidity;BMP_temperature;BMP_pressure;BME280_temperature;BME280_humidity;BME280_pressure;Samples;Min_cycle;Max_cycle;Signal;HPM_P1;HPM_P2
2023/10/24 00:00:12;;;;;;;6.60;6.00;;;;;;;11.12;100.00;100192.13;5096784;28;20406;-75
2023/10/24 00:02:38;;;;;;;6.97;6.32;;;;;;;11.13;100.00;100192.06;5096305;28;20035;-75
2023/10/24 00:05:04;;;;;;;6.85;6.25;;;;;;;11.13;100.00;100183.34;5105873;28;20303;-75
2023/10/24 00:07:29;;;;;;;6.43;5.82;;;;;;;11.14;100.00;100174.56;5097063;28;20052;-75
2023/10/24 00:09:55;;;;;;;6.30;5.90;;;;;;;11.15;100.00;100173.59;5096933;28;20031;-75
2023/10/24 00:12:20;;;;;;;7.68;7.03;;;;;;;11.17;100.00;100168.28;5095796;28;20036;-75
2023/10/24 00:14:46;;;;;;;8.13;7.43;;;;;;;11.17;100.00;100169.16;5098358;28;20345;-75
2023/10/24 00:17:11;;;;;;;7.60;6.90;;;;;;;11.17;100.00;100163.91;5098506;28;20226;-75
2023/10/24 00:19:36;;;;;;;9.07;7.63;;;;;;;11.17;100.00;100169.16;5101685;28;20043;-75
2023/10/24 00:22:02;;;;;;;7.40;6.80;;;;;;;11.18;100.00;100156.88;5096261;28;20020;-75
2023/10/24 00:24:27;;;;;;;8.10;7.30;;;;;;;11.17;100.00;100148.19;5105583;28;20230;-75
2023/10/24 00:26:54;;;;;;;8.55;7.53;;;;;;;11.18;100.00;100149.88;5096043;28;20300;-75
2023/10/24 00:29:19;;;;;;;7.78;7.18;;;;;;;11.19;100.00;100148.09;5101162;28;20158;-75
2023/10/24 00:31:45;;;;;;;8.50;6.95;;;;;;;11.20;100.00;100147.16;5099084;28;20044;-75
2023/10/24 00:34:12;;;;;;;7.68;7.07;;;;;;;11.20;100.00;100148.00;5098841;28;20499;-75
2023/10/24 00:36:39;;;;;;;7.45;6.85;;;;;;;11.21;100.00;100146.25;5094236;28;20338;-75
2023/10/24 00:39:05;;;;;;;8.23;7.53;;;;;;;11.23;100.00;100149.63;5097999;28;20128;-75
2023/10/24 00:41:31;;;;;;;8.18;7.55;;;;;;;11.23;100.00;100153.09;5095250;28;20326;-75
2023/10/24 00:43:56;;;;;;;8.05;7.30;;;;;;;11.23;100.00;100141.75;5098167;28;20131;-75
2023/10/24 00:46:22;;;;;;;7.97;7.28;;;;;;;11.25;100.00;100137.28;5102735;28;20326;-75
2023/10/24 00:48:48;;;;;;;8.25;7.55;;;;;;;11.25;100.00;100137.28;5098038;28;20035;-75
2023/10/24 00:51:14;;;;;;;8.38;7.68;;;;;;;11.25;100.00;100138.13;5095520;28;20031;-75
2023/10/24 00:53:40;;;;;;;9.75;8.35;;;;;;;11.26;100.00;100144.19;5098674;28;20087;-75
2023/10/24 00:56:06;;;;;;;9.23;8.43;;;;;;;11.28;100.00;100137.13;5094166;28;20051;-75
2023/10/24 00:58:32;;;;;;;11.98;10.55;;;;;;;11.25;100.00;100135.50;5095467;28;20055;-75
2023/10/24 01:01:00;;;;;;;11.57;10.48;;;;;;;11.26;100.00;100137.22;5096149;28;20038;-75
2023/10/24 01:03:26;;;;;;;11.60;10.38;;;;;;;11.28;100.00;100142.38;5099162;28;20032;-75
2023/10/24 01:05:52;;;;;;;15.90;11.52;;;;;;;11.26;100.00;100138.94;5091506;28;20038;-75
2023/10/24 01:08:18;;;;;;;13.55;11.20;;;;;;;11.28;100.00;100132.72;5094369;28;20020;-75
2023/10/24 01:10:43;;;;;;;12.50;10.23;;;;;;;11.28;100.00;100135.34;5094383;28;20034;-75
2023/10/24 01:13:08;;;;;;;15.23;12.45;;;;;;;11.28;100.00;100134.50;5095651;28;20372;-75
2023/10/24 01:15:34;;;;;;;16.85;12.95;;;;;;;11.26;100.00;100142.44;5096624;28;20034;-75
2023/10/24 01:17:59;;;;;;;13.57;12.15;;;;;;;11.28;100.00;100137.13;5096040;28;20024;-75
2023/10/24 01:20:24;;;;;;;13.88;10.90;;;;;;;11.30;100.00;100136.09;5097794;28;20040;-75
2023/10/24 01:22:50;;;;;;;16.95;12.65;;;;;;;11.29;100.00;100133.56;5094974;28;20260;-75
2023/10/24 01:25:15;;;;;;;15.82;12.88;;;;;;;11.26;100.00;100137.22;5102463;28;20024;-75
2023/10/24 01:27:42;;;;;;;14.82;12.20;;;;;;;11.29;100.00;100141.41;5094781;28;20322;-75
2023/10/24 01:30:12;;;;;;;12.45;11.15;;;;;;;11.31;100.00;100139.56;5101935;28;20074;-75
2023/10/24 01:32:38;;;;;;;14.65;12.40;;;;;;;11.29;100.00;100128.31;5095471;28;20032;-75
2023/10/24 01:35:04;;;;;;;13.30;11.52;;;;;;;11.30;100.00;100130.84;5099121;28;20027;-75
2023/10/24 01:37:29;;;;;;;15.25;13.00;;;;;;;11.30;100.00;100138.72;5094786;28;20358;-75
2023/10/24 01:39:55;;;;;;;19.98;13.15;;;;;;;11.31;100.00;100137.81;5094331;28;20204;-75
2023/10/24 01:42:20;;;;;;;15.90;12.20;;;;;;;11.31;100.00;100131.69;5101884;28;20026;-75
2023/10/24 01:44:46;;;;;;;14.25;11.73;;;;;;;11.32;100.00;100122.91;5095709;28;20055;-75
2023/10/24 01:47:11;;;;;;;19.70;11.75;;;;;;;11.31;100.00;100121.22;5102574;28;20031;-75
2023/10/24 01:49:36;;;;;;;14.07;11.65;;;;;;;11.32;100.00;100125.53;5095248;28;20031;-75
2023/10/24 01:52:02;;;;;;;18.80;13.55;;;;;;;11.29;100.00;100116.03;5095475;28;20372;-75
2023/10/24 01:54:27;;;;;;;18.65;13.48;;;;;;;11.30;100.00;100120.38;5097928;28;20242;-75
2023/10/24 01:56:52;;;;;;;19.70;12.73;;;;;;;11.32;100.00;100115.03;5099194;28;20044;-75
2023/10/24 01:59:18;;;;;;;23.10;13.50;;;;;;;11.32;100.00;100118.50;5101129;28;20242;-75
2023/10/24 02:04:34;;;;;;;16.50;12.45;;;;;;;11.31;100.00;100116.84;4989212;22;20307;-85
2023/10/24 02:06:59;;;;;;;17.13;12.70;;;;;;;11.32;100.00;100118.50;5053250;28;20044;-86
2023/10/24 02:09:24;;;;;;;17.35;12.57;;;;;;;11.32;100.00;100113.25;5050664;28;20274;-86
2023/10/24 02:11:50;;;;;;;18.48;13.52;;;;;;;11.30;100.00;100111.66;5039712;28;20029;-86
2023/10/24 02:14:15;;;;;;;20.70;14.18;;;;;;;11.31;100.00;100110.72;5033464;28;20033;-86
2023/10/24 02:16:40;;;;;;;17.55;13.18;;;;;;;11.32;100.00;100112.44;5032851;28;20264;-86
2023/10/24 02:19:06;;;;;;;15.23;12.25;;;;;;;11.33;100.00;100114.97;5034413;28;20037;-86
2023/10/24 02:21:31;;;;;;;16.63;12.63;;;;;;;11.33;100.00;100119.34;5032856;28;20033;-85
2023/10/24 02:23:57;;;;;;;20.10;13.98;;;;;;;11.32;100.00;100112.44;5034471;28;20070;-86
2023/10/24 02:26:23;;;;;;;23.10;15.13;;;;;;;11.28;100.00;100109.13;5032992;28;20339;-86
2023/10/24 02:28:48;;;;;;;24.73;14.63;;;;;;;11.30;100.00;100103.81;5034106;28;20315;-86
2023/10/24 02:31:14;;;;;;;21.27;14.65;;;;;;;11.31;100.00;100105.47;5048135;28;20360;-86
2023/10/24 02:33:40;;;;;;;24.33;15.50;;;;;;;11.27;100.00;100109.22;5053254;28;20028;-85
2023/10/24 02:36:07;;;;;;;20.73;15.45;;;;;;;11.26;100.00;100103.13;5042068;28;20078;-85
2023/10/24 02:38:33;;;;;;;20.40;14.93;;;;;;;11.25;100.00;100093.56;5043692;28;20040;-85
2023/10/24 02:40:58;;;;;;;21.45;15.23;;;;;;;11.25;100.00;100103.22;5050856;28;20024;-85
2023/10/24 02:43:24;;;;;;;22.75;15.45;;;;;;;11.25;100.00;100104.03;5034992;28;20034;-85
2023/10/24 02:45:49;;;;;;;20.42;14.23;;;;;;;11.26;100.00;100102.25;5041169;28;20032;-85
2023/10/24 02:48:14;;;;;;;19.75;14.43;;;;;;;11.24;100.00;100093.63;5053362;28;20094;-85
2023/10/24 02:50:41;;;;;;;19.13;14.23;;;;;;;11.24;100.00;100107.63;5052541;28;20047;-85
2023/10/24 02:53:07;;;;;;;16.55;13.48;;;;;;;11.25;100.00;100090.94;5046296;28;20084;-85
2023/10/24 02:55:35;;;;;;;23.63;15.27;;;;;;;11.24;100.00;100101.50;5042098;28;20037;-85
2023/10/24 02:58:01;;;;;;;25.00;16.50;;;;;;;11.22;100.00;100103.38;5048386;28;20029;-85
2023/10/24 03:00:26;;;;;;;18.35;14.77;;;;;;;11.25;100.00;100111.06;5034215;28;20032;-85
2023/10/24 03:02:55;;;;;;;16.08;13.55;;;;;;;11.25;100.00;100114.53;5046104;28;20057;-85
2023/10/24 03:05:21;;;;;;;17.83;13.75;;;;;;;11.26;100.00;100108.38;5037184;28;20059;-85
2023/10/24 03:07:46;;;;;;;19.10;14.18;;;;;;;11.26;100.00;100111.00;5034482;28;20033;-85
2023/10/24 03:10:12;;;;;;;22.35;14.75;;;;;;;11.27;100.00;100103.97;5043996;28;20064;-85
2023/10/24 03:12:37;;;;;;;22.10;15.13;;;;;;;11.26;100.00;100111.00;5041054;28;20045;-85
2023/10/24 03:15:03;;;;;;;21.10;15.82;;;;;;;11.24;100.00;100115.47;5040567;28;20039;-85
2023/10/24 03:17:28;;;;;;;24.65;16.60;;;;;;;11.22;100.00;100111.22;5040026;28;20044;-85
2023/10/24 03:19:55;;;;;;;19.92;14.82;;;;;;;11.22;100.00;100119.94;5038424;28;20174;-86
2023/10/24 03:22:21;;;;;;;21.23;15.10;;;;;;;11.23;100.00;100121.63;5045092;28;20228;-85
2023/10/24 03:24:47;;;;;;;17.65;13.32;;;;;;;11.23;100.00;100126.88;5051469;28;20056;-85
2023/10/24 03:27:13;;;;;;;22.25;15.60;;;;;;;11.23;100.00;100126.88;5043289;28;20033;-85
2023/10/24 03:29:40;;;;;;;21.55;15.77;;;;;;;11.21;100.00;100117.41;5037325;28;20047;-85
2023/10/24 03:32:06;;;;;;;22.30;15.02;;;;;;;11.20;100.00;100121.78;5049052;28;20040;-85
2023/10/24 03:34:35;;;;;;;19.08;14.55;;;;;;;11.21;100.00;100123.50;5055851;28;20373;-85
2023/10/24 03:37:00;;;;;;;20.38;15.43;;;;;;;11.22;100.00;100122.56;5054730;28;20055;-85
2023/10/24 03:39:25;;;;;;;21.17;14.98;;;;;;;11.22;100.00;100130.41;5038630;28;20336;-85
2023/10/24 03:41:51;;;;;;;23.77;15.38;;;;;;;11.20;100.00;100123.56;5038474;28;20275;-85
2023/10/24 03:44:16;;;;;;;26.88;16.42;;;;;;;11.18;100.00;100130.69;5039583;28;20372;-85
2023/10/24 03:46:42;;;;;;;22.48;15.02;;;;;;;11.17;100.00;100129.84;5037252;28;20111;-85
2023/10/24 03:49:07;;;;;;;21.85;14.75;;;;;;;11.18;100.00;100126.28;5037105;28;20355;-85
2023/10/24 03:51:32;;;;;;;20.98;14.25;;;;;;;11.17;100.00;100132.47;5054921;28;20075;-85
2023/10/24 03:53:58;;;;;;;24.10;15.88;;;;;;;11.18;100.00;100130.69;5040313;28;20091;-85
2023/10/24 03:56:23;;;;;;;25.40;16.05;;;;;;;11.16;100.00;100127.31;5037901;28;20029;-85
2023/10/24 03:58:48;;;;;;;25.58;16.48;;;;;;;11.16;100.00;100137.78;5037303;28;20029;-85
2023/10/24 04:01:14;;;;;;;22.08;14.57;;;;;;;11.17;100.00;100135.09;5037475;28;20083;-85
2023/10/24 04:03:39;;;;;;;26.75;17.23;;;;;;;11.12;100.00;100129.25;5042972;28;20038;-85
2023/10/24 04:06:11;;;;;;;22.70;15.63;;;;;;;11.11;100.00;100132.78;5051645;28;20064;-85
2023/10/24 04:08:37;;;;;;;24.80;15.95;;;;;;;11.07;100.00;100126.84;5045191;28;20041;-85
2023/10/24 04:11:03;;;;;;;21.83;15.55;;;;;;;11.06;100.00;100127.81;5046648;28;20316;-85
2023/10/24 04:13:28;;;;;;;22.65;15.50;;;;;;;11.08;100.00;100125.94;5052423;28;20079;-85
2023/10/24 04:15:58;;;;;;;20.58;14.68;;;;;;;11.09;100.00;100125.00;5047474;28;20339;-85
2023/10/24 04:18:26;;;;;;;22.20;15.18;;;;;;;11.11;100.00;100114.44;5055481;28;20036;-85
2023/10/24 04:20:51;;;;;;;20.98;14.40;;;;;;;11.12;100.00;100122.22;5036424;28;20097;-85
2023/10/24 04:23:16;;;;;;;20.73;14.25;;;;;;;11.11;100.00;100117.94;5037970;28;20036;-85
2023/10/24 04:25:42;;;;;;;20.45;14.50;;;;;;;11.12;100.00;100111.75;5052497;28;20036;-85
2023/10/24 04:28:07;;;;;;;19.33;13.57;;;;;;;11.13;100.00;100116.06;5049434;28;20056;-85
2023/10/24 04:30:33;;;;;;;19.40;14.15;;;;;;;11.13;100.00;100118.69;5046568;28;20170;-85
2023/10/24 04:32:58;;;;;;;17.05;13.55;;;;;;;11.16;100.00;100117.66;5036292;28;20275;-85
2023/10/24 04:35:23;;;;;;;20.30;13.50;;;;;;;11.16;100.00;100117.66;5036369;28;20057;-85
2023/10/24 04:37:49;;;;;;;17.33;13.60;;;;;;;11.12;100.00;100109.13;5047887;28;20308;-85
2023/10/24 04:40:14;;;;;;;17.83;12.30;;;;;;;11.12;100.00;100111.75;5037140;28;20029;-85
2023/10/24 04:42:40;;;;;;;19.73;13.95;;;;;;;11.08;100.00;100107.59;5035828;28;20052;-85
2023/10/24 04:45:06;;;;;;;18.45;13.15;;;;;;;11.11;100.00;100103.94;5048394;28;20028;-85
2023/10/24 04:47:31;;;;;;;17.90;13.13;;;;;;;11.10;100.00;100099.66;5043765;28;20099;-85
2023/10/24 04:49:56;;;;;;;17.75;12.60;;;;;;;11.11;100.00;100098.72;5036215;28;20066;-85
2023/10/24 04:52:22;;;;;;;19.35;13.50;;;;;;;11.10;100.00;100099.66;5035521;28;20048;-85
2023/10/24 04:54:47;;;;;;;21.58;14.35;;;;;;;11.11;100.00;100093.47;5035613;28;20032;-85
2023/10/24 04:57:13;;;;;;;17.50;13.00;;;;;;;11.11;100.00;100091.72;5036003;28;20091;-85
2023/10/24 04:59:38;;;;;;;16.77;12.02;;;;;;;11.14;100.00;100090.69;5034239;28;20040;-85
2023/10/24 05:02:04;;;;;;;21.38;14.82;;;;;;;11.08;100.00;100094.50;5036078;28;20497;-85
2023/10/24 05:04:29;;;;;;;20.13;13.90;;;;;;;11.03;100.00;100079.97;5035240;28;20068;-85
2023/10/24 05:06:55;;;;;;;18.92;13.45;;;;;;;11.05;100.00;100083.34;5042395;28;20060;-85
2023/10/24 05:09:21;;;;;;;19.48;13.18;;;;;;;11.06;100.00;100080.63;5055905;28;20235;-85
2023/10/24 05:11:47;;;;;;;18.63;12.70;;;;;;;11.06;100.00;100077.16;5033678;28;20080;-85
2023/10/24 05:14:13;;;;;;;20.90;13.65;;;;;;;11.04;100.00;100069.41;5035565;28;20037;-85
2023/10/24 05:16:39;;;;;;;17.10;12.88;;;;;;;11.03;100.00;100067.69;5034981;28;20279;-85
2023/10/24 05:19:05;;;;;;;21.65;14.10;;;;;;;11.02;100.00;100070.41;5035298;28;20321;-85
2023/10/24 05:21:31;;;;;;;22.00;13.57;;;;;;;11.01;100.00;100074.78;5038318;28;20044;-85
2023/10/24 05:23:56;;;;;;;21.27;13.75;;;;;;;11.04;100.00;100071.16;5051945;28;20041;-85
2023/10/24 05:26:22;;;;;;;17.05;11.80;;;;;;;11.04;100.00;100069.41;5048302;28;20024;-85
2023/10/24 05:28:48;;;;;;;27.25;15.70;;;;;;;11.02;100.00;100065.16;5054674;28;20340;-85
2023/10/24 05:31:13;;;;;;;24.13;14.68;;;;;;;11.03;100.00;100059.00;5048139;28;20041;-85
2023/10/24 05:33:39;;;;;;;25.30;15.13;;;;;;;11.01;100.00;100066.94;5053067;28;20060;-85
2023/10/24 05:36:04;;;;;;;18.73;14.00;;;;;;;11.02;100.00;100065.16;5051825;28;20075;-85
2023/10/24 05:38:32;;;;;;;20.42;14.38;;;;;;;11.01;100.00;100059.06;5052723;28;20087;-85
2023/10/24 05:40:58;;;;;;;18.17;13.27;;;;;;;11.02;100.00;100070.41;5046282;28;20044;-85
2023/10/24 05:43:23;;;;;;;26.02;15.57;;;;;;;10.99;100.00;100066.19;5053849;28;20028;-85
2023/10/24 05:45:49;;;;;;;22.75;15.35;;;;;;;11.01;100.00;100064.31;5047642;28;20033;-85
2023/10/24 05:48:14;;;;;;;24.02;15.02;;;;;;;11.00;100.00;100064.41;5052717;28;20032;-85
2023/10/24 05:50:40;;;;;;;28.08;15.73;;;;;;;11.01;100.00;100073.97;5050387;28;20048;-85
2023/10/24 05:53:05;;;;;;;24.38;15.77;;;;;;;11.00;100.00;100067.00;5047117;28;20036;-85
2023/10/24 05:55:33;;;;;;;26.17;15.63;;;;;;;10.99;100.00;100063.56;5039205;28;20045;-85
2023/10/24 05:57:59;;;;;;;22.70;16.00;;;;;;;10.99;100.00;100070.56;5048099;28;20048;-85
2023/10/24 06:00:24;;;;;;;27.52;17.13;;;;;;;11.01;100.00;100060.88;5048204;28;20041;-85
2023/10/24 06:02:49;;;;;;;25.63;15.68;;;;;;;11.02;100.00;100068.63;5054427;28;20029;-85
2023/10/24 06:05:15;;;;;;;19.70;14.30;;;;;;;11.04;100.00;100065.91;5051115;28;20045;-85
2023/10/24 06:07:40;;;;;;;21.15;14.35;;;;;;;11.05;100.00;100070.25;5043264;28;20022;-85
2023/10/24 06:10:06;;;;;;;24.52;17.02;;;;;;;11.00;100.00;100062.63;5045159;28;20056;-85
2023/10/24 06:12:32;;;;;;;27.00;17.05;;;;;;;11.00;100.00;100065.22;5047671;28;20029;-86
2023/10/24 06:14:57;;;;;;;26.75;17.13;;;;;;;10.99;100.00;100076.66;5052806;28;20244;-85
2023/10/24 06:17:23;;;;;;;25.45;16.55;;;;;;;11.01;100.00;100082.66;5034636;28;20093;-85
2023/10/24 06:19:49;;;;;;;25.50;17.15;;;;;;;11.01;100.00;100079.19;5045495;28;20371;-85
2023/10/24 06:22:15;;;;;;;22.58;16.50;;;;;;;11.01;100.00;100084.44;5044971;28;20469;-86
2023/10/24 06:24:40;;;;;;;26.02;17.33;;;;;;;10.97;100.00;100085.50;5052810;28;20389;-85
2023/10/24 06:27:09;;;;;;;26.40;16.13;;;;;;;10.98;100.00;100084.59;5051079;28;20228;-86
2023/10/24 06:29:34;;;;;;;25.10;17.77;;;;;;;11.00;100.00;100086.19;5053415;28;20067;-85
2023/10/24 06:32:02;;;;;;;27.05;17.58;;;;;;;10.97;100.00;100096.88;5046511;28;20284;-86
2023/10/24 06:34:28;;;;;;;24.73;16.85;;;;;;;10.98;100.00;100090.69;5053888;28;20025;-86
2023/10/24 06:36:53;;;;;;;34.47;16.95;;;;;;;10.99;100.00;100097.63;5053210;28;20213;-85
2023/10/24 06:39:19;;;;;;;25.70;16.75;;;;;;;11.00;100.00;100090.59;5052574;28;20037;-85
2023/10/24 06:41:45;;;;;;;26.70;16.38;;;;;;;11.03;100.00;100093.91;5045886;28;20051;-85
2023/10/24 06:44:10;;;;;;;24.95;17.33;;;;;;;11.01;100.00;100097.53;5033783;28;20061;-85
2023/10/24 06:46:36;;;;;;;28.23;18.63;;;;;;;10.99;100.00;100102.00;5045114;28;20052;-86
2023/10/24 06:49:01;;;;;;;25.10;17.00;;;;;;;11.00;100.00;100101.91;5051695;28;20040;-86
2023/10/24 06:51:26;;;;;;;21.77;15.93;;;;;;;11.03;100.00;100106.16;5034225;28;20296;-85
2023/10/24 06:53:52;;;;;;;25.65;16.88;;;;;;;11.00;100.00;100107.16;5040096;28;20206;-85
2023/10/24 06:56:17;;;;;;;24.65;15.95;;;;;;;11.03;100.00;100114.03;5036786;28;20039;-85
2023/10/24 06:58:43;;;;;;;21.63;15.90;;;;;;;11.03;100.00;100108.78;5049110;28;20041;-85
2023/10/24 07:01:08;;;;;;;23.77;16.83;;;;;;;11.02;100.00;100121.00;5040049;28;20087;-85
2023/10/24 07:03:33;;;;;;;23.52;15.05;;;;;;;11.07;100.00;100116.38;5046466;28;20033;-85
2023/10/24 07:05:59;;;;;;;24.20;17.60;;;;;;;11.03;100.00;100116.63;5045195;28;20112;-85
2023/10/24 07:08:24;;;;;;;24.17;17.60;;;;;;;11.02;100.00;100114.94;5049311;28;20029;-86
2023/10/24 07:10:50;;;;;;;24.40;16.08;;;;;;;11.05;100.00;100120.03;5043482;28;20126;-86
2023/10/24 07:13:15;;;;;;;27.15;18.10;;;;;;;11.03;100.00;100109.63;5047321;28;20040;-86
2023/10/24 07:15:41;;;;;;;28.77;18.02;;;;;;;11.03;100.00;100109.63;5045979;28;20049;-85
2023/10/24 07:18:07;;;;;;;27.35;18.60;;;;;;;11.02;100.00;100112.31;5050129;28;20324;-86
2023/10/24 07:20:39;;;;;;;28.05;19.52;;;;;;;11.02;100.00;100112.31;5046495;28;20036;-86
2023/10/24 07:23:04;;;;;;;30.60;18.77;;;;;;;11.05;100.00;100105.13;5048011;28;20276;-86
2023/10/24 07:25:30;;;;;;;28.95;17.83;;;;;;;11.07;100.00;100107.69;5046955;28;20071;-85
2023/10/24 07:27:57;;;;;;;25.20;17.60;;;;;;;11.08;100.00;100104.97;5048158;28;20109;-86
2023/10/24 07:30:23;;;;;;;31.10;18.73;;;;;;;11.05;100.00;100106.91;5048065;28;20040;-85
2023/10/24 07:32:49;;;;;;;24.70;17.73;;;;;;;11.08;100.00;100112.84;5048765;28;20055;-85
2023/10/24 07:35:14;;;;;;;26.52;18.42;;;;;;;11.09;100.00;100108.44;5047747;28;20328;-85
2023/10/24 07:37:40;;;;;;;25.65;18.17;;;;;;;11.09;100.00;100103.19;5047866;28;20045;-85
2023/10/24 07:40:06;;;;;;;31.23;19.48;;;;;;;11.06;100.00;100108.59;5046642;28;20033;-86
2023/10/24 07:42:32;;;;;;;26.23;18.02;;;;;;;11.07;100.00;100112.91;5038857;28;20075;-86
2023/10/24 07:44:57;;;;;;;23.65;17.35;;;;;;;11.05;100.00;100107.75;5045174;28;20039;-85
2023/10/24 07:47:23;;;;;;;22.75;17.33;;;;;;;11.07;100.00;100108.50;5045253;28;20041;-86
2023/10/24 07:49:49;;;;;;;23.20;17.15;;;;;;;11.08;100.00;100114.63;5047277;28;20045;-85
2023/10/24 07:52:15;;;;;;;23.67;17.33;;;;;;;11.09;100.00;100114.50;5054086;28;20106;-85
2023/10/24 07:54:40;;;;;;;25.42;16.92;;;;;;;11.06;100.00;100114.69;5045192;28;20312;-85
2023/10/24 07:57:06;;;;;;;19.77;15.25;;;;;;;11.09;100.00;100105.81;5047932;28;20103;-85
2023/10/24 07:59:31;;;;;;;20.63;16.27;;;;;;;11.11;100.00;100111.81;5049369;28;20040;-85
2023/10/24 08:01:56;;;;;;;25.50;16.95;;;;;;;11.06;100.00;100103.34;5052853;28;20072;-85
2023/10/24 08:04:22;;;;;;;23.33;17.30;;;;;;;11.03;100.00;100099.13;5050348;28;20127;-86
2023/10/24 08:06:47;;;;;;;22.50;16.85;;;;;;;11.06;100.00;100096.38;5048617;28;20251;-85
2023/10/24 08:09:13;;;;;;;18.10;14.95;;;;;;;11.08;100.00;100099.75;5050917;28;20048;-86
2023/10/24 08:11:38;;;;;;;22.67;15.75;;;;;;;11.08;100.00;100094.50;5045653;28;20037;-85
2023/10/24 08:14:04;;;;;;;18.77;14.82;;;;;;;11.13;100.00;100100.34;5049821;28;20328;-86
2023/10/24 08:16:29;;;;;;;19.75;15.27;;;;;;;11.16;100.00;100101.94;5048420;28;20108;-85
2023/10/24 08:18:55;;;;;;;19.70;15.63;;;;;;;11.18;100.00;100113.16;5047255;28;20025;-86
2023/10/24 08:21:21;;;;;;;20.95;15.88;;;;;;;11.19;100.00;100100.91;5043237;28;20343;-86
2023/10/24 08:23:46;;;;;;;20.08;16.05;;;;;;;11.18;100.00;100104.47;5046776;28;20029;-86
2023/10/24 08:26:12;;;;;;;19.48;15.93;;;;;;;11.16;100.00;100096.69;5045835;28;20107;-85
2023/10/24 08:28:37;;;;;;;19.45;15.50;;;;;;;11.17;100.00;100095.78;5044618;28;20037;-85
2023/10/24 08:31:02;;;;;;;20.92;16.63;;;;;;;11.15;100.00;100087.13;5047545;28;20128;-86
2023/10/24 08:33:28;;;;;;;18.08;16.05;;;;;;;11.17;100.00;100084.44;5039027;28;20044;-86
2023/10/24 08:35:54;;;;;;;22.13;16.63;;;;;;;11.20;100.00;100087.72;5052853;28;20047;-85
2023/10/24 08:38:20;;;;;;;22.25;16.55;;;;;;;11.15;100.00;100087.13;5048348;28;20278;-85
2023/10/24 08:40:46;;;;;;;21.50;16.70;;;;;;;11.16;100.00;100080.97;5047965;28;20033;-86
2023/10/24 08:43:12;;;;;;;20.58;15.70;;;;;;;11.13;100.00;100082.00;5043811;28;20096;-85
2023/10/24 08:45:38;;;;;;;19.05;15.25;;;;;;;11.16;100.00;100083.59;5044357;28;20113;-85
2023/10/24 08:48:05;;;;;;;18.45;15.00;;;;;;;11.18;100.00;100086.97;5049377;28;20041;-85
2023/10/24 08:50:31;;;;;;;16.33;13.80;;;;;;;11.20;100.00;100095.59;5050310;28;20037;-85
2023/10/24 08:52:57;;;;;;;15.55;13.35;;;;;;;11.20;100.00;100098.19;5048991;28;20799;-86
2023/10/24 08:55:24;;;;;;;17.95;13.98;;;;;;;11.18;100.00;100118.41;5049260;28;20232;-85
2023/10/24 08:57:50;;;;;;;17.65;13.80;;;;;;;11.14;100.00;100120.34;5042464;28;20037;-86
2023/10/24 09:00:16;;;;;;;16.42;12.52;;;;;;;11.15;100.00;100123.81;5046249;28;20366;-85
2023/10/24 09:02:43;;;;;;;19.27;12.80;;;;;;;11.15;100.00;100115.94;5047001;28;20041;-86
2023/10/24 09:05:13;;;;;;;18.13;12.23;;;;;;;11.18;100.00;100109.72;5039907;28;20053;-85
2023/10/24 09:07:38;;;;;;;13.80;12.35;;;;;;;11.21;100.00;100120.88;5040022;28;20121;-85
2023/10/24 09:10:05;;;;;;;14.68;12.82;;;;;;;11.22;100.00;100126.97;5045356;28;20228;-85
2023/10/24 09:12:31;;;;;;;16.38;11.90;;;;;;;11.20;100.00;100123.56;5052093;28;20048;-85
2023/10/24 09:15:01;;;;;;;17.42;11.13;;;;;;;11.21;100.00;100127.91;5048759;28;20029;-86
2023/10/24 09:17:26;;;;;;;22.10;11.35;;;;;;;11.25;100.00;100130.25;5043992;28;20179;-85
2023/10/24 09:19:58;;;;;;;14.57;11.70;;;;;;;11.25;100.00;100118.94;5048824;28;20351;-85
2023/10/24 09:22:28;;;;;;;14.75;11.40;;;;;;;11.28;100.00;100134.50;5044155;28;20040;-85
2023/10/24 09:24:55;;;;;;;13.30;10.55;;;;;;;11.30;100.00;100141.34;5053394;28;20063;-86
2023/10/24 09:27:27;;;;;;;13.23;11.23;;;;;;;11.28;100.00;100135.34;5040195;28;20029;-86
2023/10/24 09:29:53;;;;;;;16.67;11.82;;;;;;;11.30;100.00;100138.72;5049453;28;20197;-85
2023/10/24 09:32:20;;;;;;;12.63;10.95;;;;;;;11.26;100.00;100145.06;5043468;28;20037;-85
2023/10/24 09:34:46;;;;;;;13.60;11.05;;;;;;;11.31;100.00;100134.31;5052434;28;20048;-85
2023/10/24 09:37:16;;;;;;;19.38;12.43;;;;;;;11.31;100.00;100145.66;5049512;28;20056;-85
2023/10/24 09:39:58;;;;;;;16.02;13.20;;;;;;;11.28;100.00;100139.75;5051586;28;20037;-85
2023/10/24 09:42:28;;;;;;;13.20;11.80;;;;;;;11.29;100.00;100136.19;5045703;28;20024;-85
2023/10/24 09:44:55;;;;;;;17.50;13.23;;;;;;;11.32;100.00;100136.03;5050292;28;20037;-85
2023/10/24 09:47:22;;;;;;;17.58;13.02;;;;;;;11.29;100.00;100129.16;5053618;28;20328;-86
2023/10/24 09:49:49;;;;;;;15.90;13.05;;;;;;;11.34;100.00;100126.28;5052761;28;20307;-85
2023/10/24 09:52:16;;;;;;;21.13;13.05;;;;;;;11.36;100.00;100126.22;5047738;28;20044;-85
2023/10/24 09:54:43;;;;;;;16.58;12.45;;;;;;;11.33;100.00;100130.69;5052164;28;20353;-86
2023/10/24 09:57:10;;;;;;;15.07;12.40;;;;;;;11.34;100.00;100137.63;5047083;28;20029;-85
2023/10/24 09:59:37;;;;;;;14.95;12.80;;;;;;;11.32;100.00;100136.03;5052588;28;20237;-86
2023/10/24 10:02:04;;;;;;;15.95;13.25;;;;;;;11.34;100.00;100136.78;5053902;28;20035;-86
2023/10/24 10:04:32;;;;;;;19.45;13.15;;;;;;;11.32;100.00;100129.00;5047997;28;20067;-86
2023/10/24 10:07:00;;;;;;;17.65;13.55;;;;;;;11.33;100.00;100124.59;5050318;28;20040;-86
2023/10/24 10:09:26;;;;;;;17.27;13.55;;;;;;;11.36;100.00;100134.06;5050715;28;20033;-86
2023/10/24 10:11:54;;;;;;;17.05;15.13;;;;;;;11.36;100.00;100128.84;5048353;28;20323;-85
2023/10/24 10:14:37;;;;;;;20.73;14.95;;;;;;;11.33;100.00;100138.56;5045232;28;20084;-85
2023/10/24 10:17:29;;;;;;;17.88;14.05;;;;;;;11.35;100.00;100133.25;5050176;28;20324;-85
2023/10/24 10:20:16;;;;;;;23.80;16.25;;;;;;;11.36;100.00;100132.28;5053789;28;20092;-86
2023/10/24 10:23:35;;;;;;;17.65;14.52;;;;;;;11.34;100.00;100129.75;5051820;28;20043;-85
2023/10/24 10:26:08;;;;;;;22.13;14.85;;;;;;;11.36;100.00;100115.72;5001685;28;20278;-85
2023/10/24 10:28:58;;;;;;;18.45;14.40;;;;;;;11.34;100.00;100124.50;5054350;28;20045;-86
2023/10/24 10:31:38;;;;;;;17.02;14.00;;;;;;;11.33;100.00;100137.69;5049138;28;20087;-85
2023/10/24 10:34:04;;;;;;;16.33;13.82;;;;;;;11.33;100.00;100133.31;5053205;28;20060;-85
2023/10/24 10:36:29;;;;;;;15.35;13.75;;;;;;;11.34;100.00;100126.28;5046267;28;20052;-85
2023/10/24 10:39:00;;;;;;;17.15;13.38;;;;;;;11.35;100.00;100125.38;5048121;28;20033;-85
2023/10/24 10:41:26;;;;;;;15.90;14.02;;;;;;;11.36;100.00;100121.81;5049241;28;20096;-85
2023/10/24 10:44:00;;;;;;;15.95;13.02;;;;;;;11.37;100.00;100125.25;5049350;28;20043;-85
2023/10/24 10:46:29;;;;;;;13.32;12.02;;;;;;;11.38;100.00;100119.09;5048150;28;20087;-85
2023/10/24 10:49:03;;;;;;;13.60;11.63;;;;;;;11.38;100.00;100124.34;5047209;28;20158;-85
2023/10/24 10:51:31;;;;;;;14.00;11.35;;;;;;;11.38;100.00;100119.09;5056495;28;20049;-85
2023/10/24 10:54:19;;;;;;;10.65;9.70;;;;;;;11.38;100.00;100125.19;5039340;28;20037;-85
2023/10/24 10:56:48;;;;;;;9.73;8.73;;;;;;;11.38;100.00;100122.56;5057639;28;20223;-85
2023/10/24 10:59:27;;;;;;;8.63;7.75;;;;;;;11.33;100.00;100116.72;5047813;28;20256;-85
2023/10/24 11:02:29;;;;;;;7.32;6.72;;;;;;;11.31;100.00;100123.81;5055294;28;20036;-85